Time;durP1;ratioP1;P1;durP2;ratioP2;P2;SDS_P1;SDS_P2;PMS_P1;PMS_P2;Temp;Humidity;BMP_temperature;BMP_pressure;BME280_temperature;BME280_humidity;BME280_pressure;Samples;Min_cycle;Max_cycle;Signal;HPM_P1;HPM_P2
2024/02/28 00:01:53;;;;;;;17.63;13.30;;;8.60;99.90;;;;;;5083150;28;20216;-78
2024/02/28 00:04:20;;;;;;;15.45;11.77;;;8.60;99.90;;;;;;5072877;28;20246;-79
2024/02/28 00:06:47;;;;;;;17.15;12.50;;;8.60;99.90;;;;;;5085317;28;20298;-79
2024/02/28 00:09:14;;;;;;;17.98;12.07;;;8.60;99.90;;;;;;5093235;28;20229;-78
2024/02/28 00:11:44;;;;;;;18.33;13.55;;;8.70;99.90;;;;;;5086978;28;20227;-79
2024/02/28 00:14:11;;;;;;;18.52;12.18;;;8.70;99.90;;;;;;5073954;28;20235;-78
2024/02/28 00:16:41;;;;;;;17.90;12.05;;;8.70;99.90;;;;;;5072814;28;20284;-78
2024/02/28 00:19:11;;;;;;;16.98;11.85;;;8.70;99.90;;;;;;5073830;28;20288;-78
2024/02/28 00:21:38;;;;;;;15.68;12.82;;;8.70;99.90;;;;;;5088366;28;20219;-78
2024/02/28 00:24:06;;;;;;;16.15;11.82;;;8.60;99.90;;;;;;5076330;28;20263;-78
2024/02/28 00:26:33;;;;;;;16.63;11.75;;;8.60;99.90;;;;;;5074647;28;20224;-78
2024/02/28 00:29:00;;;;;;;21.08;14.32;;;8.70;99.90;;;;;;5084670;28;20223;-78
2024/02/28 00:31:27;;;;;;;16.40;12.88;;;8.70;99.90;;;;;;5075254;28;20224;-78
2024/02/28 00:33:54;;;;;;;14.20;11.13;;;8.70;99.90;;;;;;5053708;28;20230;-79
2024/02/28 00:36:23;;;;;;;16.95;12.45;;;8.70;99.90;;;;;;5083280;28;20235;-78
2024/02/28 00:38:50;;;;;;;17.45;12.55;;;8.70;99.90;;;;;;5079230;28;20231;-78
2024/02/28 00:41:18;;;;;;;16.02;11.85;;;8.70;99.90;;;;;;5085858;28;20766;-78
2024/02/28 00:43:45;;;;;;;18.58;13.02;;;8.70;99.90;;;;;;5090574;28;20557;-78
2024/02/28 00:46:12;;;;;;;17.45;12.93;;;8.70;99.90;;;;;;5087741;28;20304;-79
2024/02/28 00:48:39;;;;;;;17.88;11.68;;;8.60;99.90;;;;;;5075609;28;20557;-79
2024/02/28 00:51:08;;;;;;;19.85;13.70;;;8.70;99.90;;;;;;5086452;28;20223;-78
2024/02/28 00:53:36;;;;;;;19.80;12.85;;;8.60;99.90;;;;;;5075759;28;20569;-78
2024/02/28 00:56:03;;;;;;;16.00;12.13;;;8.60;99.90;;;;;;5085350;28;20215;-79
2024/02/28 00:58:30;;;;;;;15.80;11.48;;;8.70;99.90;;;;;;5081381;28;20561;-79
2024/02/28 01:00:58;;;;;;;15.02;11.45;;;8.70;99.90;;;;;;5058544;28;20242;-78
2024/02/28 01:03:25;;;;;;;13.70;12.07;;;8.70;99.90;;;;;;5063836;28;20244;-78
2024/02/28 01:05:52;;;;;;;18.50;13.00;;;8.60;99.90;;;;;;5061634;28;20216;-78
2024/02/28 01:08:19;;;;;;;16.35;11.07;;;8.60;99.90;;;;;;5052814;28;20562;-78
2024/02/28 01:10:48;;;;;;;16.38;14.07;;;8.60;99.90;;;;;;5055070;28;20245;-78
2024/02/28 01:13:15;;;;;;;16.27;11.82;;;8.60;99.90;;;;;;5054343;28;20667;-78
2024/02/28 01:15:42;;;;;;;17.83;11.25;;;8.60;99.90;;;;;;5071065;28;20684;-79
2024/02/28 01:18:10;;;;;;;21.77;13.65;;;8.60;99.90;;;;;;5059383;28;20282;-78
2024/02/28 01:20:39;;;;;;;16.50;12.63;;;8.60;99.90;;;;;;5064749;28;20224;-79
2024/02/28 01:23:06;;;;;;;16.90;11.60;;;8.60;99.90;;;;;;5060205;28;20228;-78
2024/02/28 01:25:33;;;;;;;20.88;14.95;;;8.60;99.90;;;;;;5056049;28;20224;-78
2024/02/28 01:28:02;;;;;;;20.63;13.55;;;8.60;99.90;;;;;;5074991;28;20569;-78
2024/02/28 01:30:29;;;;;;;21.35;13.52;;;8.60;99.90;;;;;;5082549;28;20307;-79
2024/02/28 01:32:59;;;;;;;18.85;12.38;;;8.60;99.90;;;;;;5067185;28;20717;-79
2024/02/28 01:35:26;;;;;;;17.73;12.50;;;8.60;99.90;;;;;;5074361;28;20219;-79
2024/02/28 01:37:53;;;;;;;18.05;13.00;;;8.60;99.90;;;;;;5074976;28;20228;-79
2024/02/28 01:40:21;;;;;;;16.02;11.93;;;8.60;99.90;;;;;;5080638;28;20694;-79
2024/02/28 01:42:48;;;;;;;16.88;11.63;;;8.60;99.90;;;;;;5082865;28;20250;-79
2024/02/28 01:45:16;;;;;;;18.58;11.48;;;8.60;99.90;;;;;;5090306;28;20229;-79
2024/02/28 01:47:43;;;;;;;15.98;10.57;;;8.60;99.90;;;;;;5093439;28;20231;-80
2024/02/28 01:50:12;;;;;;;14.45;10.93;;;8.60;99.90;;;;;;5081976;28;20230;-79
2024/02/28 01:52:39;;;;;;;15.73;11.25;;;8.60;99.90;;;;;;5087608;28;20227;-79
2024/02/28 01:55:07;;;;;;;17.08;11.60;;;8.60;99.90;;;;;;5084023;28;20225;-79
2024/02/28 01:57:36;;;;;;;15.15;10.52;;;8.60;99.90;;;;;;5091009;28;20216;-78
2024/02/28 02:00:04;;;;;;;14.10;10.40;;;8.60;99.90;;;;;;5081321;28;20220;-78
2024/02/28 02:02:33;;;;;;;14.32;9.27;;;8.50;99.90;;;;;;5066147;28;20239;-78
2024/02/28 02:05:00;;;;;;;12.57;9.38;;;8.50;99.90;;;;;;5068671;28;20220;-78
2024/02/28 02:07:28;;;;;;;12.43;9.10;;;8.50;99.90;;;;;;5067584;28;20221;-79
2024/02/28 02:09:56;;;;;;;12.00;9.23;;;8.50;99.90;;;;;;5055944;28;20215;-79
2024/02/28 02:12:29;;;;;;;12.75;9.65;;;8.50;99.90;;;;;;5065508;28;20697;-79
2024/02/28 02:14:57;;;;;;;12.27;9.02;;;8.50;99.90;;;;;;5063630;28;20225;-78
2024/02/28 02:17:24;;;;;;;13.13;9.48;;;8.50;99.90;;;;;;5064675;28;20220;-79
2024/02/28 02:19:52;;;;;;;16.23;9.90;;;8.60;99.90;;;;;;5071553;28;20597;-79
2024/02/28 02:22:21;;;;;;;10.35;8.35;;;8.60;99.90;;;;;;5059310;28;20220;-78
2024/02/28 02:24:49;;;;;;;11.60;8.27;;;8.60;99.90;;;;;;5055625;28;20239;-79
2024/02/28 02:27:21;;;;;;;14.48;9.00;;;8.60;99.90;;;;;;5061420;28;20299;-79
2024/02/28 02:29:48;;;;;;;11.18;8.63;;;8.60;99.90;;;;;;5053733;28;20216;-79
2024/02/28 02:32:15;;;;;;;11.32;8.10;;;8.70;99.90;;;;;;5056490;28;20213;-78
2024/02/28 02:34:42;;;;;;;8.98;7.13;;;8.60;99.90;;;;;;5058134;28;20225;-81
2024/02/28 02:37:09;;;;;;;11.00;7.53;;;8.60;99.90;;;;;;5065854;28;20228;-79
2024/02/28 02:39:40;;;;;;;8.20;7.35;;;8.60;99.90;;;;;;5047410;28;20228;-79
2024/02/28 02:42:08;;;;;;;8.73;7.75;;;8.60;99.90;;;;;;5038242;28;20221;-79
2024/02/28 02:44:35;;;;;;;9.60;7.25;;;8.50;99.90;;;;;;5078618;28;20228;-79
2024/02/28 02:47:02;;;;;;;12.38;7.97;;;8.50;99.90;;;;;;5053752;28;20225;-79
2024/02/28 02:49:30;;;;;;;8.35;7.03;;;8.50;99.90;;;;;;5055227;28;20690;-79
2024/02/28 02:51:57;;;;;;;9.73;7.03;;;8.50;99.90;;;;;;5055513;28;20228;-79
2024/02/28 02:54:30;;;;;;;9.55;8.25;;;8.50;99.90;;;;;;5072887;28;20221;-79
2024/02/28 02:56:57;;;;;;;8.98;7.03;;;8.50;99.90;;;;;;5055989;28;20700;-79
2024/02/28 02:59:26;;;;;;;9.77;6.95;;;8.50;99.90;;;;;;5084398;28;20275;-79
2024/02/28 03:01:54;;;;;;;11.73;6.95;;;8.40;99.90;;;;;;5077714;28;20246;-79
2024/02/28 03:04:21;;;;;;;8.85;6.93;;;8.40;99.90;;;;;;5074633;28;20329;-80
2024/02/28 03:06:48;;;;;;;9.82;7.68;;;8.50;99.90;;;;;;5083010;28;20215;-79
2024/02/28 03:09:15;;;;;;;10.45;7.55;;;8.40;99.90;;;;;;5079550;28;20215;-79
2024/02/28 03:11:42;;;;;;;9.60;7.22;;;8.50;99.90;;;;;;5086176;28;20234;-79
2024/02/28 03:14:11;;;;;;;7.75;5.88;;;8.50;99.90;;;;;;5078516;28;20227;-79
2024/02/28 03:16:43;;;;;;;9.50;7.30;;;8.40;99.90;;;;;;5077670;28;20302;-79
2024/02/28 03:19:11;;;;;;;10.27;7.90;;;8.50;99.90;;;;;;5084338;28;20234;-79
2024/02/28 03:21:38;;;;;;;9.90;6.55;;;8.40;99.90;;;;;;5055960;28;20230;-80
2024/02/28 03:24:05;;;;;;;12.85;8.77;;;8.50;99.90;;;;;;5054840;28;20266;-79
2024/02/28 03:26:34;;;;;;;8.55;7.03;;;8.40;99.90;;;;;;5053589;28;20312;-80
2024/02/28 03:29:01;;;;;;;8.38;6.25;;;8.50;99.90;;;;;;5070572;28;20248;-79
2024/02/28 03:31:28;;;;;;;6.28;4.93;;;8.50;99.90;;;;;;5069008;28;20223;-79
2024/02/28 03:33:59;;;;;;;8.10;6.70;;;8.50;99.90;;;;;;5054825;28;20220;-79
2024/02/28 03:36:26;;;;;;;9.32;5.72;;;8.50;99.90;;;;;;5045567;28;20588;-79
2024/02/28 03:38:53;;;;;;;6.63;5.40;;;8.50;99.90;;;;;;5053390;28;20605;-79
2024/02/28 03:41:20;;;;;;;9.48;6.28;;;8.50;99.90;;;;;;5053861;28;20224;-79
2024/02/28 03:43:47;;;;;;;6.45;5.22;;;8.40;99.90;;;;;;5054277;28;20224;-79
2024/02/28 03:46:15;;;;;;;6.78;5.25;;;8.40;99.90;;;;;;5055835;28;20315;-79
2024/02/28 03:48:42;;;;;;;7.45;5.30;;;8.40;99.90;;;;;;5051939;28;20227;-79
2024/02/28 03:51:10;;;;;;;5.80;5.30;;;8.40;99.90;;;;;;5051261;28;20224;-79
2024/02/28 03:53:37;;;;;;;6.10;4.70;;;8.50;99.90;;;;;;5058765;28;20231;-79
2024/02/28 03:56:04;;;;;;;5.10;4.60;;;8.40;99.90;;;;;;5054865;28;20220;-79
2024/02/28 03:58:32;;;;;;;4.72;3.72;;;8.40;99.90;;;;;;5052257;28;20319;-79
2024/02/28 04:00:59;;;;;;;5.10;4.40;;;8.40;99.90;;;;;;5060442;28;20212;-79
2024/02/28 04:03:26;;;;;;;5.75;4.97;;;8.40;99.90;;;;;;5062713;28;20224;-79
2024/02/28 04:05:53;;;;;;;6.10;5.30;;;8.40;99.90;;;;;;5053910;28;20216;-79
2024/02/28 04:08:21;;;;;;;6.10;4.63;;;8.40;99.90;;;;;;5053584;28;20537;-79
2024/02/28 04:10:50;;;;;;;7.18;4.63;;;8.50;99.90;;;;;;5053273;28;20232;-79
2024/02/28 04:13:17;;;;;;;6.32;4.80;;;8.40;99.90;;;;;;5056125;28;20548;-79
2024/02/28 04:15:45;;;;;;;4.60;4.18;;;8.50;99.90;;;;;;5060281;28;20244;-79
2024/02/28 04:18:13;;;;;;;5.43;4.55;;;8.50;99.90;;;;;;5053516;28;20229;-79
2024/02/28 04:20:43;;;;;;;5.88;4.30;;;8.50;99.90;;;;;;5062383;28;20709;-79
2024/02/28 04:23:10;;;;;;;4.85;4.40;;;8.50;99.90;;;;;;5069776;28;20220;-79
2024/02/28 04:25:40;;;;;;;7.30;4.32;;;8.50;99.90;;;;;;5090897;28;20234;-79
2024/02/28 04:28:08;;;;;;;8.20;4.55;;;8.50;99.90;;;;;;5073113;28;20226;-80
2024/02/28 04:30:35;;;;;;;6.28;4.90;;;8.50;99.90;;;;;;5076527;28;20211;-79
2024/02/28 04:33:02;;;;;;;5.45;4.95;;;8.50;99.90;;;;;;5078225;28;20231;-79
2024/02/28 04:35:29;;;;;;;7.63;4.72;;;8.50;99.90;;;;;;5073310;28;20230;-79
2024/02/28 04:37:56;;;;;;;6.30;4.55;;;8.50;99.90;;;;;;5079175;28;20220;-79
2024/02/28 04:40:23;;;;;;;6.75;4.55;;;8.50;99.90;;;;;;5071573;28;20228;-79
2024/02/28 04:42:52;;;;;;;6.38;5.15;;;8.50;99.90;;;;;;5072494;28;20254;-79
2024/02/28 04:45:19;;;;;;;6.75;5.85;;;8.50;99.90;;;;;;5073176;28;20237;-79
2024/02/28 04:47:46;;;;;;;6.20;5.18;;;8.50;99.90;;;;;;5073148;28;20646;-79
2024/02/28 04:50:13;;;;;;;6.95;5.80;;;8.50;99.90;;;;;;5072756;28;20220;-79
2024/02/28 04:52:40;;;;;;;7.68;5.97;;;8.50;99.90;;;;;;5072564;28;20226;-79
2024/02/28 04:55:08;;;;;;;7.03;5.70;;;8.50;99.90;;;;;;5072953;28;20224;-80
2024/02/28 04:57:35;;;;;;;9.13;5.90;;;8.50;99.90;;;;;;5072265;28;20230;-79
2024/02/28 05:00:04;;;;;;;7.70;6.50;;;8.40;99.90;;;;;;5072998;28;20224;-79
2024/02/28 05:02:31;;;;;;;10.60;6.45;;;8.40;99.90;;;;;;5071803;28;20236;-79
2024/02/28 05:04:58;;;;;;;8.35;6.50;;;8.40;99.90;;;;;;5073102;28;20224;-79
2024/02/28 05:07:28;;;;;;;9.57;7.43;;;8.40;99.90;;;;;;5071583;28;20228;-79
2024/02/28 05:09:55;;;;;;;9.70;6.32;;;8.40;99.90;;;;;;5074440;28;20231;-79
2024/02/28 05:12:23;;;;;;;6.57;5.72;;;8.40;99.90;;;;;;5083290;28;20224;-80
2024/02/28 05:14:50;;;;;;;9.60;7.18;;;8.40;99.90;;;;;;5078761;28;20566;-79
2024/02/28 05:17:18;;;;;;;7.93;6.15;;;8.40;99.90;;;;;;5074149;28;20227;-80
2024/02/28 05:19:45;;;;;;;6.82;5.97;;;8.40;99.90;;;;;;5073432;28;20242;-80
2024/02/28 05:22:12;;;;;;;7.40;5.82;;;8.40;99.90;;;;;;5075230;28;20688;-80
2024/02/28 05:24:39;;;;;;;6.40;5.78;;;8.30;99.90;;;;;;5075841;28;20247;-79
2024/02/28 05:27:06;;;;;;;6.72;5.85;;;8.30;99.90;;;;;;5076551;28;20220;-79
2024/02/28 05:29:33;;;;;;;7.95;5.85;;;8.30;99.90;;;;;;5076358;28;20680;-79
2024/02/28 05:32:00;;;;;;;9.57;6.28;;;8.30;99.90;;;;;;5076554;28;20737;-79
2024/02/28 05:34:28;;;;;;;7.25;5.55;;;8.30;99.90;;;;;;5075437;28;20236;-79
2024/02/28 05:36:55;;;;;;;5.30;4.80;;;8.40;99.90;;;;;;5076507;28;20623;-79
2024/02/28 05:39:22;;;;;;;6.25;5.45;;;8.40;99.90;;;;;;5075585;28;20273;-79
2024/02/28 05:41:49;;;;;;;5.03;4.45;;;8.40;99.90;;;;;;5076046;28;20250;-80
2024/02/28 05:44:16;;;;;;;5.43;4.00;;;8.40;99.90;;;;;;5075923;28;20257;-79
2024/02/28 05:46:43;;;;;;;5.03;4.53;;;8.40;99.90;;;;;;5075455;28;20487;-79
2024/02/28 05:49:10;;;;;;;5.47;4.97;;;8.40;99.90;;;;;;5075994;28;20238;-79
2024/02/28 05:51:38;;;;;;;6.13;4.50;;;8.40;99.90;;;;;;5075828;28;20231;-79
2024/02/28 05:54:07;;;;;;;6.05;4.70;;;8.40;99.90;;;;;;5075982;28;20216;-79
2024/02/28 05:56:34;;;;;;;7.90;6.97;;;8.40;99.90;;;;;;5075567;28;20252;-79
2024/02/28 05:59:02;;;;;;;8.93;5.32;;;8.40;99.90;;;;;;5075933;28;20228;-79
2024/02/28 06:01:29;;;;;;;7.25;5.35;;;8.40;99.90;;;;;;5075396;28;20722;-79
2024/02/28 06:03:56;;;;;;;6.90;4.68;;;8.40;99.90;;;;;;5075635;28;20673;-79
2024/02/28 06:06:23;;;;;;;6.63;5.25;;;8.40;99.90;;;;;;5075740;28;20693;-79
2024/02/28 06:08:51;;;;;;;6.60;5.30;;;8.40;99.90;;;;;;5055525;28;20213;-79
2024/02/28 06:11:18;;;;;;;6.50;5.85;;;8.40;99.90;;;;;;5055575;28;20259;-79
2024/02/28 06:13:45;;;;;;;8.90;6.50;;;8.40;99.90;;;;;;5066075;28;20236;-79
2024/02/28 06:16:17;;;;;;;10.75;8.43;;;8.40;99.90;;;;;;5075726;28;20226;-79
2024/02/28 06:18:44;;;;;;;12.43;8.98;;;8.40;99.90;;;;;;5075074;28;20216;-79
2024/02/28 06:21:11;;;;;;;12.30;10.57;;;8.30;99.90;;;;;;5075541;28;20551;-79
2024/02/28 06:23:38;;;;;;;14.65;11.38;;;8.30;99.90;;;;;;5074726;28;20604;-78
2024/02/28 06:26:07;;;;;;;10.60;9.00;;;8.30;99.90;;;;;;5075250;28;20238;-79
2024/02/28 06:28:34;;;;;;;10.40;7.70;;;8.30;99.90;;;;;;5074447;28;20234;-79
2024/02/28 06:31:01;;;;;;;7.05;6.35;;;8.30;99.90;;;;;;5075192;28;20227;-79
2024/02/28 06:33:28;;;;;;;9.20;7.30;;;8.30;99.90;;;;;;5073882;28;20239;-79
2024/02/28 06:35:55;;;;;;;9.50;8.02;;;8.30;99.90;;;;;;5074868;28;20212;-79
2024/02/28 06:38:22;;;;;;;11.60;8.10;;;8.30;99.90;;;;;;5075021;28;20224;-79
2024/02/28 06:40:49;;;;;;;11.43;9.18;;;8.30;99.90;;;;;;5074502;28;20232;-79
2024/02/28 06:43:21;;;;;;;11.13;8.68;;;8.40;99.90;;;;;;5074926;28;20239;-79
2024/02/28 06:45:48;;;;;;;9.50;8.60;;;8.40;99.90;;;;;;5074141;28;20232;-79
2024/02/28 06:48:15;;;;;;;8.93;7.55;;;8.40;99.90;;;;;;5074771;28;20557;-78
2024/02/28 06:50:45;;;;;;;12.05;9.00;;;8.40;99.90;;;;;;5074181;28;20697;-78
2024/02/28 06:53:12;;;;;;;10.18;8.13;;;8.40;99.90;;;;;;5074607;28;20224;-78
2024/02/28 06:55:39;;;;;;;9.07;7.68;;;8.40;99.90;;;;;;5074273;28;20223;-78
2024/02/28 06:58:06;;;;;;;9.55;7.30;;;8.40;99.90;;;;;;5065233;28;20224;-78
2024/02/28 07:00:35;;;;;;;14.02;10.50;;;8.40;99.90;;;;;;5074689;28;20314;-78
2024/02/28 07:03:02;;;;;;;15.43;11.55;;;8.40;99.90;;;;;;5054034;28;20239;-78
2024/02/28 07:05:29;;;;;;;15.38;9.98;;;8.30;99.90;;;;;;5069437;28;20228;-78
2024/02/28 07:07:56;;;;;;;13.93;9.75;;;8.40;99.90;;;;;;5073958;28;20250;-78
2024/02/28 07:10:23;;;;;;;15.30;11.20;;;8.30;99.90;;;;;;5074020;28;20235;-78
2024/02/28 07:12:50;;;;;;;20.50;17.42;;;8.30;99.90;;;;;;5073324;28;20239;-78
2024/02/28 07:15:19;;;;;;;12.00;10.68;;;8.30;99.90;;;;;;5074245;28;20220;-77
2024/02/28 07:17:47;;;;;;;9.25;6.68;;;8.30;99.90;;;;;;5073848;28;20293;-78
2024/02/28 07:20:15;;;;;;;11.75;8.30;;;8.30;99.90;;;;;;5073963;28;20306;-77
2024/02/28 07:22:44;;;;;;;8.05;7.18;;;8.20;99.90;;;;;;5073138;28;20690;-77
2024/02/28 07:25:11;;;;;;;10.60;7.97;;;8.20;99.90;;;;;;5074072;28;20299;-77
2024/02/28 07:27:38;;;;;;;12.88;8.52;;;8.20;99.90;;;;;;5073847;28;20621;-77
2024/02/28 07:30:06;;;;;;;10.52;7.75;;;8.10;99.90;;;;;;5046775;28;20224;-78
2024/02/28 07:32:34;;;;;;;10.95;7.32;;;8.10;99.90;;;;;;5066371;28;20233;-78
2024/02/28 07:35:03;;;;;;;10.60;7.43;;;8.10;99.90;;;;;;5053395;28;21038;-78
2024/02/28 07:37:30;;;;;;;10.52;7.95;;;8.10;99.90;;;;;;5053715;28;20221;-78
2024/02/28 07:39:57;;;;;;;9.45;7.28;;;8.10;99.90;;;;;;5053478;28;20307;-78
2024/02/28 07:42:24;;;;;;;7.13;6.43;;;8.10;99.90;;;;;;5053675;28;20307;-78
2024/02/28 07:44:56;;;;;;;7.30;6.47;;;8.00;99.90;;;;;;5051950;28;20271;-78
2024/02/28 07:47:23;;;;;;;7.55;6.05;;;8.00;99.90;;;;;;5053648;28;20542;-77
2024/02/28 07:49:50;;;;;;;9.48;7.20;;;8.00;99.90;;;;;;5052798;28;20285;-78
2024/02/28 07:52:19;;;;;;;11.15;8.75;;;8.00;99.90;;;;;;5053559;28;20232;-78
2024/02/28 07:54:46;;;;;;;8.43;7.45;;;8.00;99.90;;;;;;5057276;28;20225;-79
2024/02/28 07:57:15;;;;;;;12.73;8.98;;;8.10;99.90;;;;;;5055515;28;20220;-77
2024/02/28 07:59:43;;;;;;;8.90;7.00;;;8.10;99.90;;;;;;5054220;28;20765;-78
2024/02/28 08:02:11;;;;;;;9.68;7.47;;;8.10;99.90;;;;;;5055592;28;20221;-78
2024/02/28 08:04:38;;;;;;;8.40;7.10;;;8.10;99.90;;;;;;5054159;28;20260;-78
2024/02/28 08:07:05;;;;;;;9.90;7.30;;;8.10;99.90;;;;;;5053249;28;20310;-77
2024/02/28 08:09:34;;;;;;;8.55;7.20;;;8.10;99.90;;;;;;5053649;28;20690;-78
2024/02/28 08:12:01;;;;;;;11.95;9.55;;;8.10;99.90;;;;;;5052644;28;20225;-77
2024/02/28 08:14:28;;;;;;;13.32;8.82;;;8.10;99.90;;;;;;5053352;28;20329;-77
2024/02/28 08:16:56;;;;;;;9.90;7.75;;;8.10;99.90;;;;;;5052800;28;20282;-77
2024/02/28 08:19:23;;;;;;;6.95;5.55;;;8.10;99.90;;;;;;5052921;28;20224;-78
2024/02/28 08:21:50;;;;;;;10.05;6.10;;;8.00;99.90;;;;;;5052643;28;20225;-78
2024/02/28 08:24:17;;;;;;;7.38;5.97;;;8.00;99.90;;;;;;5052788;28;20286;-78
2024/02/28 08:26:46;;;;;;;6.97;6.15;;;8.00;99.90;;;;;;5053071;28;20229;-78
2024/02/28 08:29:13;;;;;;;7.18;5.35;;;8.00;99.90;;;;;;5053029;28;20234;-78
2024/02/28 08:31:45;;;;;;;7.20;5.75;;;8.10;99.90;;;;;;5053147;28;20225;-78
2024/02/28 08:34:12;;;;;;;7.25;6.28;;;8.10;99.90;;;;;;5052699;28;20228;-79
2024/02/28 08:36:39;;;;;;;8.32;6.88;;;8.10;99.90;;;;;;5049111;28;20220;-78
2024/02/28 08:39:06;;;;;;;9.85;7.15;;;8.20;99.90;;;;;;5053414;28;20233;-78
2024/02/28 08:41:36;;;;;;;8.23;6.45;;;8.20;99.90;;;;;;5053153;28;20224;-78
2024/02/28 08:44:05;;;;;;;9.15;7.03;;;8.20;99.90;;;;;;5052585;28;20239;-79
2024/02/28 08:46:37;;;;;;;8.52;7.10;;;8.20;99.90;;;;;;5052425;28;20232;-77
2024/02/28 08:49:04;;;;;;;10.75;8.45;;;8.20;99.90;;;;;;5052622;28;20667;-78
2024/02/28 08:51:31;;;;;;;14.02;10.70;;;8.20;99.90;;;;;;5052861;28;20242;-78
2024/02/28 08:53:59;;;;;;;21.63;16.95;;;8.20;99.90;;;;;;5051866;28;20319;-78
2024/02/28 08:56:29;;;;;;;15.05;12.82;;;8.10;99.90;;;;;;5055041;28;20225;-78
2024/02/28 08:58:56;;;;;;;14.25;11.18;;;8.00;99.90;;;;;;5056711;28;20220;-77
2024/02/28 09:01:25;;;;;;;13.38;10.20;;;8.00;99.90;;;;;;5057214;28;20236;-79
2024/02/28 09:03:52;;;;;;;10.38;8.77;;;8.00;99.90;;;;;;5056239;28;20224;-79
2024/02/28 09:06:19;;;;;;;16.45;8.93;;;8.00;99.90;;;;;;5064559;28;20236;-79
2024/02/28 09:08:46;;;;;;;12.15;10.88;;;8.00;99.90;;;;;;5072302;28;20220;-79
2024/02/28 09:11:13;;;;;;;11.60;8.80;;;8.00;99.90;;;;;;5076170;28;20224;-79
2024/02/28 09:13:40;;;;;;;13.80;10.20;;;8.00;99.90;;;;;;5076593;28;20231;-79
2024/02/28 09:16:07;;;;;;;11.77;10.38;;;8.00;99.90;;;;;;5076148;28;20224;-79
2024/02/28 09:18:36;;;;;;;13.18;10.90;;;8.00;99.90;;;;;;5076401;28;20231;-79
2024/02/28 09:21:03;;;;;;;12.07;9.13;;;8.10;99.90;;;;;;5076246;28;20219;-79
2024/02/28 09:23:33;;;;;;;11.98;9.68;;;8.00;99.90;;;;;;5076405;28;20220;-79
2024/02/28 09:26:00;;;;;;;13.75;10.20;;;8.10;99.90;;;;;;5075997;28;20303;-79
2024/02/28 09:28:29;;;;;;;12.75;8.93;;;8.00;99.90;;;;;;5064257;28;20232;-78
2024/02/28 09:30:58;;;;;;;14.50;11.52;;;8.00;99.90;;;;;;5072882;28;20739;-78
2024/02/28 09:33:25;;;;;;;14.07;11.57;;;8.00;99.90;;;;;;5075957;28;20224;-79
2024/02/28 09:35:54;;;;;;;11.93;9.45;;;7.90;99.90;;;;;;5076101;28;20216;-79
2024/02/28 09:38:25;;;;;;;13.10;10.35;;;8.00;99.90;;;;;;5075668;28;20227;-78
2024/02/28 09:40:52;;;;;;;20.73;12.00;;;8.00;99.90;;;;;;5075785;28;20654;-78
2024/02/28 09:43:27;;;;;;;21.70;14.00;;;7.90;99.90;;;;;;5075789;28;20234;-77
2024/02/28 09:45:56;;;;;;;14.68;10.25;;;7.90;99.90;;;;;;5076021;28;20224;-77
2024/02/28 09:48:23;;;;;;;14.13;11.45;;;7.90;99.90;;;;;;5075496;28;20365;-78
2024/02/28 09:50:50;;;;;;;23.17;18.73;;;7.90;99.90;;;;;;5075980;28;20303;-80
2024/02/28 09:53:19;;;;;;;16.17;12.85;;;7.90;99.90;;;;;;5075548;28;20308;-76
2024/02/28 09:55:46;;;;;;;13.43;11.13;;;7.90;99.90;;;;;;5075809;28;20223;-77
2024/02/28 09:58:13;;;;;;;18.30;12.65;;;7.90;99.90;;;;;;5074997;28;20691;-79
2024/02/28 10:00:43;;;;;;;13.25;11.00;;;7.90;99.90;;;;;;5075858;28;20222;-78
2024/02/28 10:03:11;;;;;;;13.82;10.57;;;7.90;99.90;;;;;;5075307;28;20228;-78
2024/02/28 10:05:39;;;;;;;13.93;10.95;;;7.90;99.90;;;;;;5075578;28;20308;-78
2024/02/28 10:08:09;;;;;;;18.60;13.68;;;7.90;99.90;;;;;;5074759;28;20223;-77
2024/02/28 10:10:39;;;;;;;14.63;10.55;;;7.90;99.90;;;;;;5075799;28;20303;-78
2024/02/28 10:13:20;;;;;;;13.75;10.93;;;7.90;99.90;;;;;;5074211;28;20239;-77
2024/02/28 10:15:48;;;;;;;17.90;12.45;;;7.90;99.90;;;;;;5075086;28;20233;-79
2024/02/28 10:18:18;;;;;;;15.82;11.25;;;7.80;99.90;;;;;;5075223;28;20226;-79
2024/02/28 10:20:45;;;;;;;16.85;12.80;;;7.80;99.90;;;;;;5064707;28;20318;-78
2024/02/28 10:23:16;;;;;;;13.63;11.73;;;7.80;99.90;;;;;;5064441;28;20231;-79
2024/02/28 10:25:48;;;;;;;13.60;10.90;;;7.80;99.90;;;;;;5074242;28;20311;-78
2024/02/28 10:28:15;;;;;;;15.68;10.60;;;7.80;99.90;;;;;;5056925;28;20220;-79
2024/02/28 10:30:47;;;;;;;14.40;10.95;;;7.90;99.90;;;;;;5075373;28;20569;-78
2024/02/28 10:33:14;;;;;;;14.95;10.80;;;7.90;99.90;;;;;;5074979;28;20228;-78
2024/02/28 10:35:44;;;;;;;15.73;12.52;;;7.90;99.90;;;;;;5074726;28;20289;-78
2024/02/28 10:38:13;;;;;;;20.77;13.80;;;7.90;99.90;;;;;;5075094;28;20215;-79
2024/02/28 10:40:41;;;;;;;19.55;13.93;;;8.00;99.90;;;;;;5075157;28;20746;-78
2024/02/28 10:43:11;;;;;;;18.38;14.02;;;8.00;99.90;;;;;;5074581;28;20224;-79
2024/02/28 10:45:39;;;;;;;19.98;14.20;;;8.00;99.90;;;;;;5075118;28;20230;-79
2024/02/28 10:48:11;;;;;;;17.70;13.48;;;8.00;99.90;;;;;;5074486;28;20220;-79
2024/02/28 10:50:38;;;;;;;19.98;14.27;;;8.10;99.90;;;;;;5074277;28;20220;-78
2024/02/28 10:53:05;;;;;;;18.60;14.23;;;8.10;99.90;;;;;;5074267;28;20670;-78
2024/02/28 10:55:40;;;;;;;17.10;13.50;;;8.10;99.90;;;;;;5074628;28;20296;-78
2024/02/28 10:58:11;;;;;;;17.63;14.23;;;8.10;99.90;;;;;;5074417;28;20219;-78
2024/02/28 11:00:41;;;;;;;18.17;13.30;;;8.20;99.90;;;;;;5074945;28;20228;-78
2024/02/28 11:03:12;;;;;;;16.02;13.07;;;8.20;99.90;;;;;;5073990;28;20220;-79
2024/02/28 11:05:40;;;;;;;18.85;13.73;;;8.20;99.90;;;;;;5074866;28;20224;-78
2024/02/28 11:08:13;;;;;;;17.50;12.63;;;8.20;99.90;;;;;;5072763;28;20273;-78
2024/02/28 11:10:47;;;;;;;17.13;12.32;;;8.20;99.90;;;;;;5074673;28;20226;-78
2024/02/28 11:13:23;;;;;;;15.13;12.45;;;8.20;99.90;;;;;;5074159;28;20230;-79
2024/02/28 11:15:56;;;;;;;21.33;14.55;;;8.20;99.90;;;;;;5074597;28;20230;-79
2024/02/28 11:18:23;;;;;;;17.50;13.45;;;8.20;99.90;;;;;;5073234;28;20772;-80
2024/02/28 11:20:51;;;;;;;20.10;16.20;;;8.30;99.90;;;;;;5073661;28;20625;-78
2024/02/28 11:23:19;;;;;;;22.75;17.33;;;8.30;99.90;;;;;;5073452;28;20677;-80
2024/02/28 11:25:46;;;;;;;14.95;12.18;;;8.30;99.90;;;;;;5073995;28;20227;-79
2024/02/28 11:28:13;;;;;;;16.63;11.68;;;8.40;99.90;;;;;;5072935;28;20219;-79
2024/02/28 11:30:42;;;;;;;15.45;11.73;;;8.40;99.90;;;;;;5073961;28;20219;-79
2024/02/28 11:33:10;;;;;;;14.73;11.25;;;8.40;99.90;;;;;;5073399;28;20224;-79
2024/02/28 11:35:37;;;;;;;12.95;10.40;;;8.40;99.90;;;;;;5073999;28;20244;-79
2024/02/28 11:38:10;;;;;;;13.40;10.77;;;8.40;99.90;;;;;;5073861;28;20274;-77
2024/02/28 11:40:37;;;;;;;15.13;11.45;;;8.40;99.90;;;;;;5063914;28;20224;-79
2024/02/28 11:43:04;;;;;;;12.48;9.98;;;8.50;99.90;;;;;;5073506;28;20589;-80
2024/02/28 11:45:31;;;;;;;12.57;10.02;;;8.50;99.90;;;;;;5073316;28;20556;-80
2024/02/28 11:48:07;;;;;;;13.88;9.75;;;8.50;99.90;;;;;;5073832;28;20243;-78
2024/02/28 11:50:35;;;;;;;12.15;10.27;;;8.50;99.90;;;;;;5063963;28;20585;-79
2024/02/28 11:53:04;;;;;;;12.70;9.55;;;8.50;99.90;;;;;;5073187;28;20228;-78
2024/02/28 11:55:31;;;;;;;13.55;10.77;;;8.50;99.90;;;;;;5073321;28;20684;-80
2024/02/28 11:58:01;;;;;;;11.45;9.52;;;8.50;99.90;;;;;;5073480;28;20220;-78
2024/02/28 12:00:28;;;;;;;13.95;9.98;;;8.50;99.90;;;;;;5072982;28;20232;-78
2024/02/28 12:03:06;;;;;;;11.80;9.25;;;8.50;99.90;;;;;;5073726;28;20224;-80
2024/02/28 12:05:33;;;;;;;10.30;8.70;;;8.50;99.90;;;;;;5072940;28;20250;-78
2024/02/28 12:08:02;;;;;;;12.55;9.40;;;8.50;99.90;;;;;;5075076;28;20219;-78
2024/02/28 12:10:29;;;;;;;13.20;8.85;;;8.50;99.90;;;;;;5072818;28;20275;-78
2024/02/28 12:13:00;;;;;;;10.85;8.50;;;8.50;99.90;;;;;;5073262;28;20255;-79
2024/02/28 12:15:30;;;;;;;11.23;8.18;;;8.40;99.90;;;;;;5072706;28;20674;-78
2024/02/28 12:17:58;;;;;;;14.43;9.50;;;8.50;99.90;;;;;;5073598;28;20223;-78
2024/02/28 12:20:25;;;;;;;11.73;8.80;;;8.50;99.90;;;;;;5072883;28;20220;-77
2024/02/28 12:22:52;;;;;;;13.65;9.27;;;8.40;99.90;;;;;;5073138;28;20231;-78
2024/02/28 12:25:39;;;;;;;11.88;8.20;;;8.50;99.90;;;;;;5072406;28;20220;-78
2024/02/28 12:28:07;;;;;;;10.93;9.07;;;8.50;99.90;;;;;;5074168;28;20269;-79
2024/02/28 12:30:42;;;;;;;12.68;8.63;;;8.50;99.90;;;;;;5071812;28;20263;-78
2024/02/28 12:33:09;;;;;;;11.68;8.63;;;8.60;99.90;;;;;;5073321;28;20227;-79
2024/02/28 12:35:36;;;;;;;9.10;8.15;;;8.60;99.90;;;;;;5072826;28;20623;-78
2024/02/28 12:38:04;;;;;;;8.93;7.60;;;8.60;99.90;;;;;;5072970;28;20223;-78
2024/02/28 12:40:32;;;;;;;9.05;7.10;;;8.70;99.90;;;;;;5072075;28;20256;-78
2024/02/28 12:43:01;;;;;;;8.95;7.50;;;8.70;99.90;;;;;;5072463;28;20234;-78
2024/02/28 12:45:32;;;;;;;12.93;10.40;;;8.70;99.90;;;;;;5072536;28;20227;-78
2024/02/28 12:48:00;;;;;;;12.80;10.02;;;8.70;99.90;;;;;;5073112;28;20228;-78
2024/02/28 12:50:28;;;;;;;12.25;10.27;;;8.80;99.90;;;;;;5072452;28;20220;-78